Colorado Springs, CO (80928)

11:05 AM MDT on August 30, 2014 (GMT -0600)
21 Miles NE of Airport | Change Station
CLOSE
Current Station
Personal Weather Station
Location: Pueblo, CO
Elevation: 5000 ft
Nearby Weather Stations

Elev 5000 ft 38.45 °N, 104.34 °W | Updated 3 minutes ago

Clear
Clear
75.1 °F
Feels Like 77 °F
N
11.0
Wind Variable Wind from SSW
Gusts 11.0 mph

Today
High -- | Low -- °F
--% Chance of Precip.
Yesterday
High -- | Low -- °F
Precip. -- in
6:25 AM 7:30 PM
Waxing Crescent, 23% visible
Pressure 29.94 in
Visibility 10.0 miles
Clouds Clear
Heat Index 77 °F
Dew Point 46 °F
Humidity 35%
Rainfall 0.00 in
Snow Depth Not available.
UV 8 out of 12
Pollen 10.20 out of 12
Ozone Good
PM2.5 Good
Flu Activity Not available.
METAR KABH 301656Z AUTO 20004KT 10SM CLR 22/08 A3014 RMK AO2 SLP136 T02220078 PNO $

More Conditions Fewer Conditions

Pressure 29.94 in
Visibility 10.0 miles
Clouds Clear
Heat Index 77 °F
Dew Point 46 °F
Humidity 35%
Rainfall 0.00 in
Snow Depth Not available.
UV 8 out of 12
Pollen 10.20 out of 12
Ozone Good
PM2.5 Good
Flu Activity Not available.
METAR KABH 301656Z AUTO 20004KT 10SM CLR 22/08 A3014 RMK AO2 SLP136 T02220078 PNO $

More Conditions Fewer Conditions

10-Day Weather Forecast

Almanac

Astronomy

Aug. 30, 2014 Rise Set
Actual Time 6:25 AM MDT 7:30 PM MDT
Civil Twilight 5:57 AM MDT 7:57 PM MDT
Nautical Twilight 5:25 AM MDT 8:30 PM MDT
Astronomical Twilight 4:51 AM MDT 9:04 PM MDT
Moon 11:11 AM MDT 10:10 PM MDT
Length of Visible Light 13h 59m
Length of Day
13h 05m
Tomorrow will be 2m 23s shorter.
Waxing Crescent, 23% of the Moon is Illuminated
Today
Waxing Crescent
Sep 2
First Quarter
Sep 8
Full
Sep 15
Last Quarter
Sep 24
New

Today's Extremes

State Highs State Lows

Community

WunderPhotos

Upload Photos

1,748,566 photos uploaded!

WunderBlogs® & News

Nearby

Air Quality

  Air Quality AQ Index Pollutant
Yesterday Good
OZONE
Yesterday Good
PM2.5
Current Good
OZONE
Current Good
PM2.5
Saturday Good
PM2.5
Saturday Good
OZONE

Snow Depth

Station Depth Elevation
Ute Creek 0 in 10650 ft
Rough And Tumble 2 in 10360 ft
Jackwhacker Gulch 0 in 10960 ft
Porphyry Creek 0 in 10760 ft
Buckskin Joe 0 in 11150 ft

Earthquake Activity

City Distance Mag. Time & Date
No recent earthquake activity has been reported nearby.
Minimum magnitude displayed is 2.5.

Coastal Water Temperatures

Place Temperature
No Stations Reporting

Nearby Weather Stations